Weather at Ruad Zhongqi Hailiutu Airport

Public forecast

Using degrees Celsius for public forecast. Weather courtesy of forecast.io.

Closest aviation weather report (METAR) to Ruad Zhongqi Hailiutu Airport

Closest report is Hohhot Baita International Airport, 163.6 nm (302.9 km) ESE.

2024/05/23 22:00 (retrieved 23 minutes ago)

ZBHH 232200Z 06003MPS 9999 FEW040 21/11 Q1011 NOSIG

Closest aviation forecast (TAF) to Ruad Zhongqi Hailiutu Airport

Closest forecast is Hohhot Baita International Airport, 163.6 nm (302.9 km) ESE.

2024/05/23 18:03 (retrieved 4 hours ago)

TAF TAF ZBHH 231505Z 2318/2418 24004MPS 9999 FEW040 TX25/2407Z TN17/2322Z TEMPO 2318/2324 2800 -SHRA FEW040CB FEW040 TEMPO 2402/2406 -TSRA FEW040CB FEW040 BECMG 2416/2417 2800 -SHRA FEW040CB FEW040